Time;durP1;ratioP1;P1;durP2;ratioP2;P2;SDS_P1;SDS_P2;PMS_P1;PMS_P2;Temp;Humidity;BMP_temperature;BMP_pressure;BME280_temperature;BME280_humidity;BME280_pressure;Samples;Min_cycle;Max_cycle;Signal;HPM_P1;HPM_P2
2023/06/13 00:01:04;;;;;;;14.52;4.40;;;25.00;53.50;;;;;;5025472;28;20038;-54
2023/06/13 00:03:30;;;;;;;11.55;4.20;;;25.00;53.60;;;;;;5035953;28;20026;-54
2023/06/13 00:05:56;;;;;;;11.30;4.43;;;24.90;53.60;;;;;;5026490;28;20033;-54
2023/06/13 00:08:24;;;;;;;13.70;4.82;;;24.90;53.60;;;;;;5037139;28;20030;-54
2023/06/13 00:10:50;;;;;;;12.00;4.95;;;24.90;53.60;;;;;;5046927;28;20037;-54
2023/06/13 00:13:16;;;;;;;10.20;4.10;;;24.90;53.60;;;;;;5033820;28;20085;-54
2023/06/13 00:15:48;;;;;;;8.60;4.05;;;24.80;53.60;;;;;;5032731;28;20101;-54
2023/06/13 00:18:15;;;;;;;11.82;4.40;;;24.80;53.60;;;;;;5017295;28;20044;-54
2023/06/13 00:20:41;;;;;;;9.90;3.85;;;24.80;53.70;;;;;;5037059;28;20029;-54
2023/06/13 00:23:08;;;;;;;14.13;4.13;;;24.80;53.70;;;;;;5040745;28;20116;-54
2023/06/13 00:25:34;;;;;;;11.32;4.40;;;24.80;53.80;;;;;;5046609;28;20045;-54
2023/06/13 00:28:00;;;;;;;15.90;4.45;;;24.70;53.90;;;;;;5047359;28;20033;-54
2023/06/13 00:30:25;;;;;;;6.95;3.60;;;24.70;53.80;;;;;;5025667;28;20078;-54
2023/06/13 00:32:54;;;;;;;11.32;3.95;;;24.70;53.90;;;;;;5045270;28;20017;-57
2023/06/13 00:35:20;;;;;;;9.43;4.30;;;24.60;53.90;;;;;;5047901;28;20042;-56
2023/06/13 00:37:47;;;;;;;9.00;3.80;;;24.60;54.00;;;;;;5031007;28;20072;-57
2023/06/13 00:40:12;;;;;;;9.32;3.83;;;24.60;53.90;;;;;;5036252;28;20038;-57
2023/06/13 00:42:38;;;;;;;6.38;3.60;;;24.50;53.90;;;;;;5028111;28;20133;-57
2023/06/13 00:45:27;;;;;;;10.07;3.75;;;24.50;54.00;;;;;;5045008;28;20600;-56
2023/06/13 00:48:11;;;;;;;8.88;3.83;;;24.50;54.00;;;;;;5047192;28;20029;-57
2023/06/13 00:50:40;;;;;;;9.43;3.50;;;24.50;54.00;;;;;;5046409;28;20045;-57
2023/06/13 00:53:16;;;;;;;15.95;4.22;;;24.40;54.00;;;;;;5045466;28;20030;-55
2023/06/13 00:55:42;;;;;;;10.73;3.55;;;24.40;54.00;;;;;;5039232;28;20038;-56
2023/06/13 00:58:07;;;;;;;7.18;3.50;;;24.40;53.90;;;;;;5035409;28;20036;-57
2023/06/13 01:00:37;;;;;;;9.30;3.80;;;24.40;54.00;;;;;;5026685;28;20041;-57
2023/06/13 01:03:07;;;;;;;7.57;3.65;;;24.30;54.00;;;;;;5059888;28;20160;-57
2023/06/13 01:05:33;;;;;;;9.88;4.05;;;24.30;54.00;;;;;;5046473;28;20502;-56
2023/06/13 01:07:59;;;;;;;7.80;3.42;;;24.20;54.00;;;;;;5045054;28;20029;-56
2023/06/13 01:10:29;;;;;;;7.63;3.40;;;24.20;54.10;;;;;;5032532;28;20034;-57
2023/06/13 01:13:01;;;;;;;7.50;4.05;;;24.20;54.10;;;;;;5042271;28;20029;-56
2023/06/13 01:15:30;;;;;;;10.35;3.63;;;24.10;54.10;;;;;;5040503;28;20041;-57
2023/06/13 01:17:58;;;;;;;6.55;2.85;;;24.10;54.20;;;;;;5027633;28;20037;-56
2023/06/13 01:20:34;;;;;;;6.57;3.53;;;24.10;54.30;;;;;;5039832;28;20030;-57
2023/06/13 01:23:10;;;;;;;8.70;3.28;;;24.10;54.30;;;;;;5036038;28;20060;-57
2023/06/13 01:25:59;;;;;;;8.60;2.97;;;24.00;54.30;;;;;;5042638;28;20124;-57
2023/06/13 01:28:24;;;;;;;8.60;3.85;;;24.00;54.30;;;;;;5027186;28;20022;-57
2023/06/13 01:30:50;;;;;;;8.43;3.45;;;24.00;54.40;;;;;;5038078;28;20037;-57
2023/06/13 01:33:16;;;;;;;7.28;3.28;;;24.00;54.50;;;;;;5031313;28;20056;-56
2023/06/13 01:35:42;;;;;;;6.38;3.10;;;24.00;54.50;;;;;;5025553;28;20062;-57
2023/06/13 01:38:07;;;;;;;7.53;3.35;;;23.90;54.50;;;;;;5039990;28;20558;-56
2023/06/13 01:40:33;;;;;;;5.45;3.00;;;23.90;54.60;;;;;;5025965;28;20490;-57
2023/06/13 01:42:59;;;;;;;9.45;3.08;;;23.80;54.60;;;;;;5036596;28;20045;-56
2023/06/13 01:45:24;;;;;;;6.95;3.05;;;23.80;54.50;;;;;;5044748;28;20045;-57
2023/06/13 01:48:26;;;;;;;6.03;3.15;;;23.80;54.60;;;;;;5042013;28;20022;-57
2023/06/13 01:51:07;;;;;;;4.78;3.10;;;23.80;54.60;;;;;;5025871;28;20034;-56
2023/06/13 01:53:39;;;;;;;7.60;3.03;;;23.70;54.60;;;;;;5018129;28;20513;-57
2023/06/13 01:56:08;;;;;;;4.80;3.00;;;23.70;54.60;;;;;;5027962;28;20038;-57
2023/06/13 01:58:42;;;;;;;6.55;3.70;;;23.70;54.70;;;;;;5043845;28;20056;-57
2023/06/13 02:01:08;;;;;;;7.60;3.87;;;23.60;54.70;;;;;;5025160;28;20026;-57
2023/06/13 02:03:33;;;;;;;6.97;3.78;;;23.70;54.80;;;;;;5041566;28;20549;-57
2023/06/13 02:05:59;;;;;;;8.90;4.25;;;23.60;54.90;;;;;;5025576;28;20455;-57
2023/06/13 02:08:26;;;;;;;6.25;3.67;;;23.60;55.00;;;;;;5033461;28;20026;-57
2023/06/13 02:10:52;;;;;;;10.45;3.83;;;23.60;55.00;;;;;;5045664;28;20478;-57
2023/06/13 02:13:18;;;;;;;5.97;3.67;;;23.60;55.00;;;;;;5034055;28;20084;-56
2023/06/13 02:15:43;;;;;;;6.55;4.28;;;23.50;55.00;;;;;;5040226;28;20048;-57
2023/06/13 02:18:09;;;;;;;5.63;4.57;;;23.50;55.00;;;;;;5023628;28;20029;-57
2023/06/13 02:20:34;;;;;;;6.47;4.80;;;23.50;55.20;;;;;;5038774;28;20029;-57
2023/06/13 02:23:02;;;;;;;9.57;4.85;;;23.40;55.20;;;;;;5043116;28;20037;-56
2023/06/13 02:25:27;;;;;;;6.18;4.32;;;23.40;55.30;;;;;;5025127;28;20030;-57
2023/06/13 02:27:53;;;;;;;7.30;4.70;;;23.40;55.30;;;;;;5028218;28;20546;-57
2023/06/13 02:30:18;;;;;;;8.07;4.82;;;23.40;55.40;;;;;;5043682;28;20362;-57
2023/06/13 02:32:46;;;;;;;7.43;4.63;;;23.40;55.50;;;;;;5024470;28;20365;-57
2023/06/13 02:35:12;;;;;;;8.57;4.63;;;23.40;55.60;;;;;;5040517;28;20134;-57
2023/06/13 02:37:37;;;;;;;9.10;5.15;;;23.30;55.60;;;;;;5031967;28;20029;-56
2023/06/13 02:40:12;;;;;;;7.65;4.70;;;23.30;55.70;;;;;;5042291;28;20033;-57
2023/06/13 02:42:38;;;;;;;8.25;4.95;;;23.30;55.80;;;;;;5025960;28;20034;-57
2023/06/13 02:45:04;;;;;;;7.88;5.43;;;23.30;55.90;;;;;;5026267;28;20456;-56
2023/06/13 02:47:29;;;;;;;7.90;6.07;;;23.30;56.00;;;;;;5040834;28;20373;-57
2023/06/13 02:49:55;;;;;;;8.68;6.00;;;23.20;56.00;;;;;;5045345;28;20022;-57
2023/06/13 02:52:21;;;;;;;10.63;5.70;;;23.20;56.00;;;;;;5044539;28;20056;-56
2023/06/13 02:54:47;;;;;;;12.15;6.05;;;23.20;56.10;;;;;;5024886;28;20089;-56
2023/06/13 02:57:13;;;;;;;9.52;6.28;;;23.20;56.20;;;;;;5041009;28;20038;-57
2023/06/13 02:59:38;;;;;;;10.20;6.00;;;23.20;56.30;;;;;;5024177;28;20040;-56
2023/06/13 03:02:04;;;;;;;10.85;6.55;;;23.10;56.30;;;;;;5030598;28;20056;-56
2023/06/13 03:04:31;;;;;;;10.27;6.55;;;23.10;56.40;;;;;;5035344;28;20025;-57
2023/06/13 03:06:57;;;;;;;10.27;6.60;;;23.10;56.50;;;;;;5026584;28;20446;-57
2023/06/13 03:09:22;;;;;;;10.45;6.32;;;23.10;56.50;;;;;;5036225;28;20026;-57
2023/06/13 03:11:48;;;;;;;7.18;6.00;;;23.10;56.60;;;;;;5024228;28;20091;-56
2023/06/13 03:14:13;;;;;;;14.70;7.90;;;23.00;56.60;;;;;;5023819;28;20042;-57
2023/06/13 03:16:40;;;;;;;10.05;6.80;;;23.00;56.70;;;;;;5023924;28;20093;-57
2023/06/13 03:19:05;;;;;;;14.05;7.40;;;23.00;56.80;;;;;;5024279;28;20038;-57
2023/06/13 03:21:31;;;;;;;11.57;6.95;;;22.90;56.90;;;;;;5056060;28;20094;-55
2023/06/13 03:23:56;;;;;;;11.50;6.45;;;22.90;56.90;;;;;;5023337;28;20032;-57
2023/06/13 03:26:22;;;;;;;10.70;6.72;;;22.90;57.00;;;;;;5039506;28;20038;-57
2023/06/13 03:28:48;;;;;;;11.23;6.82;;;22.90;57.00;;;;;;5040390;28;20030;-57
2023/06/13 03:31:14;;;;;;;10.65;6.38;;;22.80;57.00;;;;;;5042904;28;20029;-57
2023/06/13 03:33:40;;;;;;;13.75;6.95;;;22.80;57.10;;;;;;5033335;28;20449;-56
2023/06/13 03:36:06;;;;;;;44.30;10.00;;;22.80;57.10;;;;;;5036287;28;20041;-57
2023/06/13 03:38:32;;;;;;;19.08;7.82;;;22.80;57.20;;;;;;5037009;28;20025;-56
2023/06/13 03:40:57;;;;;;;25.05;8.73;;;22.80;57.20;;;;;;5038985;28;20038;-57
2023/06/13 03:43:23;;;;;;;30.52;9.30;;;22.70;57.20;;;;;;5052547;28;20053;-57
2023/06/13 03:45:49;;;;;;;34.80;8.40;;;22.80;57.30;;;;;;5024098;28;20029;-56
2023/06/13 03:48:15;;;;;;;39.92;9.00;;;22.70;57.20;;;;;;5041097;28;20022;-56
2023/06/13 03:50:40;;;;;;;31.70;8.95;;;22.70;57.30;;;;;;5036426;28;20093;-56
2023/06/13 03:53:06;;;;;;;32.35;8.95;;;22.60;57.20;;;;;;5041181;28;20022;-54
2023/06/13 03:55:32;;;;;;;43.55;9.80;;;22.60;57.30;;;;;;5027399;28;20094;-54
2023/06/13 03:57:58;;;;;;;31.35;8.93;;;22.60;57.30;;;;;;5042975;28;20032;-53
2023/06/13 04:00:23;;;;;;;33.97;8.70;;;22.50;57.30;;;;;;5045801;28;20100;-54
2023/06/13 04:02:49;;;;;;;29.77;8.27;;;22.60;57.40;;;;;;5040862;28;20030;-54
2023/06/13 04:05:16;;;;;;;24.02;7.85;;;22.50;57.40;;;;;;5030718;28;20034;-54
2023/06/13 04:07:42;;;;;;;29.52;8.05;;;22.50;57.40;;;;;;5046186;28;20478;-54
2023/06/13 04:10:08;;;;;;;27.90;7.60;;;22.40;57.40;;;;;;5048050;28;20036;-54
2023/06/13 04:12:33;;;;;;;20.90;7.97;;;22.40;57.50;;;;;;5047054;28;20057;-54
2023/06/13 04:14:59;;;;;;;24.58;8.15;;;22.30;57.50;;;;;;5048786;28;20470;-54
2023/06/13 04:17:25;;;;;;;26.23;7.25;;;22.30;57.60;;;;;;5048128;28;20140;-54
2023/06/13 04:19:50;;;;;;;21.13;7.10;;;22.30;57.70;;;;;;5029683;28;20049;-54
2023/06/13 04:22:19;;;;;;;25.27;6.88;;;22.20;57.70;;;;;;5039219;28;20509;-54
2023/06/13 04:24:45;;;;;;;23.65;7.05;;;22.20;57.80;;;;;;5039449;28;20028;-54
2023/06/13 04:27:13;;;;;;;26.02;6.85;;;22.10;57.70;;;;;;5047597;28;20030;-54
2023/06/13 04:29:40;;;;;;;21.33;6.32;;;22.20;57.80;;;;;;5047687;28;20140;-54
2023/06/13 04:32:07;;;;;;;25.67;6.07;;;22.20;57.80;;;;;;5047034;28;20041;-54
2023/06/13 04:34:33;;;;;;;19.30;6.50;;;22.10;57.80;;;;;;5037754;28;20030;-54
2023/06/13 04:37:03;;;;;;;14.85;5.82;;;22.10;57.90;;;;;;5026752;28;20072;-54
2023/06/13 04:39:28;;;;;;;12.90;5.50;;;22.10;57.90;;;;;;5042697;28;20057;-54
2023/06/13 04:42:01;;;;;;;16.52;5.85;;;22.10;57.90;;;;;;5028581;28;20034;-54
2023/06/13 04:44:26;;;;;;;18.13;5.53;;;22.00;57.90;;;;;;5041281;28;20044;-54
2023/06/13 04:46:57;;;;;;;13.88;4.75;;;22.00;58.00;;;;;;5046657;28;20029;-54
2023/06/13 04:49:27;;;;;;;15.75;5.70;;;21.90;58.60;;;;;;5032578;28;20026;-54
2023/06/13 04:51:54;;;;;;;13.98;5.25;;;21.90;58.10;;;;;;5027076;28;20022;-54
2023/06/13 04:54:23;;;;;;;13.45;4.90;;;21.90;58.10;;;;;;5043069;28;20025;-54
2023/06/13 04:56:49;;;;;;;14.57;4.65;;;21.90;58.10;;;;;;5027259;28;20121;-54
2023/06/13 04:59:14;;;;;;;10.85;4.65;;;21.80;58.20;;;;;;5039373;28;20029;-54
2023/06/13 05:01:40;;;;;;;9.45;4.38;;;21.80;58.30;;;;;;5034176;28;20037;-54
2023/06/13 05:04:05;;;;;;;7.68;4.68;;;21.80;58.30;;;;;;5041903;28;20053;-54
2023/06/13 05:06:34;;;;;;;11.90;4.47;;;21.80;58.40;;;;;;5026679;28;20037;-54
2023/06/13 05:09:00;;;;;;;9.00;4.38;;;21.70;58.40;;;;;;5037252;28;20108;-54
2023/06/13 05:11:25;;;;;;;9.98;4.43;;;21.80;58.50;;;;;;5031459;28;20429;-54
2023/06/13 05:13:51;;;;;;;8.40;4.05;;;21.80;58.60;;;;;;5035146;28;20033;-54
2023/06/13 05:16:18;;;;;;;11.98;4.07;;;21.70;58.60;;;;;;5046277;28;20095;-54
2023/06/13 05:18:46;;;;;;;15.50;4.85;;;21.70;58.60;;;;;;5038011;28;20068;-54
2023/06/13 05:21:16;;;;;;;13.82;4.65;;;21.70;58.70;;;;;;5033615;28;20038;-54
2023/06/13 05:23:43;;;;;;;14.55;4.45;;;21.60;58.60;;;;;;5032982;28;20029;-54
2023/06/13 05:26:10;;;;;;;11.77;3.95;;;21.40;58.60;;;;;;5044483;28;20037;-54
2023/06/13 05:28:35;;;;;;;5.78;3.88;;;21.60;58.80;;;;;;5031866;28;20078;-54
2023/06/13 05:31:01;;;;;;;10.45;3.80;;;21.60;58.80;;;;;;5026062;28;20045;-54
2023/06/13 05:33:27;;;;;;;11.38;3.95;;;21.60;58.80;;;;;;5024861;28;20045;-54
2023/06/13 05:35:53;;;;;;;7.18;3.75;;;21.60;58.80;;;;;;5032121;28;20026;-54
2023/06/13 05:38:18;;;;;;;8.23;4.03;;;21.60;58.80;;;;;;5052150;28;20124;-54
2023/06/13 05:40:44;;;;;;;7.32;4.00;;;21.60;58.80;;;;;;5032632;28;20072;-54
2023/06/13 05:43:12;;;;;;;7.95;4.20;;;21.60;58.80;;;;;;5025567;28;20029;-54
2023/06/13 05:45:38;;;;;;;8.75;4.22;;;21.50;58.80;;;;;;5025111;28;20025;-53
2023/06/13 05:48:04;;;;;;;7.63;3.53;;;21.50;58.90;;;;;;5041876;28;20034;-54
2023/06/13 05:50:29;;;;;;;6.15;3.45;;;21.50;59.10;;;;;;5042052;28;20083;-54
2023/06/13 05:52:55;;;;;;;13.40;3.50;;;21.40;59.20;;;;;;5045398;28;20397;-54
2023/06/13 05:55:20;;;;;;;6.22;3.35;;;21.30;59.30;;;;;;5027351;28;20394;-54
2023/06/13 05:57:46;;;;;;;8.82;3.30;;;21.30;59.50;;;;;;5036524;28;20037;-53
2023/06/13 06:00:13;;;;;;;8.00;3.50;;;21.20;59.60;;;;;;5035178;28;20033;-54
2023/06/13 06:02:46;;;;;;;5.00;3.70;;;21.20;59.80;;;;;;5034171;28;20090;-54
2023/06/13 06:05:11;;;;;;;5.93;3.00;;;21.10;59.90;;;;;;5035657;28;20077;-54
2023/06/13 06:07:38;;;;;;;5.10;3.33;;;21.10;60.00;;;;;;5015696;28;20033;-54
2023/06/13 06:10:05;;;;;;;6.18;3.08;;;21.10;60.10;;;;;;5044253;28;20053;-54
2023/06/13 06:12:30;;;;;;;4.47;3.05;;;21.10;60.20;;;;;;5026884;28;20093;-54
2023/06/13 06:14:56;;;;;;;3.33;3.03;;;21.10;60.30;;;;;;5028272;28;20038;-55
2023/06/13 06:17:21;;;;;;;5.97;2.88;;;21.00;60.50;;;;;;5040057;28;20068;-53
2023/06/13 06:19:48;;;;;;;8.52;3.30;;;20.90;61.30;;;;;;5043845;28;20489;-54
2023/06/13 06:22:13;;;;;;;4.85;2.97;;;20.90;60.60;;;;;;5043191;28;20060;-54
2023/06/13 06:24:39;;;;;;;6.28;3.38;;;20.90;60.80;;;;;;5042451;28;20030;-54
2023/06/13 06:27:06;;;;;;;10.93;2.72;;;20.90;60.90;;;;;;5037607;28;20026;-54
2023/06/13 06:29:31;;;;;;;6.65;3.17;;;20.90;61.00;;;;;;5043268;28;20089;-54
2023/06/13 06:31:57;;;;;;;6.68;3.38;;;20.80;61.10;;;;;;5043167;28;20355;-54
2023/06/13 06:34:22;;;;;;;6.13;3.00;;;20.80;61.10;;;;;;5032060;28;20022;-54
2023/06/13 06:36:48;;;;;;;8.02;3.15;;;20.80;61.20;;;;;;5037698;28;20025;-53
2023/06/13 06:39:15;;;;;;;6.68;3.17;;;20.80;61.30;;;;;;5033776;28;20057;-54
2023/06/13 06:41:40;;;;;;;4.32;2.95;;;20.70;61.40;;;;;;5051574;28;20029;-54
2023/06/13 06:44:06;;;;;;;4.03;3.00;;;20.70;61.40;;;;;;5020090;28;20504;-55
2023/06/13 06:46:31;;;;;;;5.15;3.10;;;20.70;61.70;;;;;;5051576;28;20034;-54
2023/06/13 06:48:57;;;;;;;13.43;3.25;;;20.60;61.60;;;;;;5044207;28;20051;-54
2023/06/13 06:51:22;;;;;;;10.00;3.20;;;20.60;61.60;;;;;;5052809;28;20056;-54
2023/06/13 06:53:49;;;;;;;6.47;2.92;;;20.60;61.70;;;;;;5043179;28;20026;-54
2023/06/13 06:56:15;;;;;;;5.90;3.17;;;20.70;61.80;;;;;;5041659;28;20092;-54
2023/06/13 06:58:40;;;;;;;10.07;3.20;;;20.60;61.70;;;;;;5045743;28;20030;-54
2023/06/13 07:01:06;;;;;;;10.00;3.67;;;20.70;61.80;;;;;;5030509;28;20038;-54
2023/06/13 07:03:32;;;;;;;19.63;4.72;;;20.70;61.80;;;;;;5035194;28;20030;-54
2023/06/13 07:05:57;;;;;;;29.88;5.07;;;20.70;62.00;;;;;;5039988;28;20041;-54
2023/06/13 07:08:23;;;;;;;99.55;14.18;;;20.70;62.00;;;;;;5029293;28;20033;-54
2023/06/13 07:10:49;;;;;;;22.40;4.03;;;20.60;62.10;;;;;;5056158;28;20021;-54
2023/06/13 07:13:15;;;;;;;21.90;5.60;;;20.70;62.10;;;;;;5038571;28;20030;-54
2023/06/13 07:15:40;;;;;;;18.67;4.60;;;20.60;62.20;;;;;;5032502;28;20037;-54
2023/06/13 07:18:08;;;;;;;16.58;4.10;;;20.70;62.50;;;;;;5035668;28;20034;-54
2023/06/13 07:20:33;;;;;;;118.03;13.75;;;20.60;62.40;;;;;;5024024;28;20029;-54
2023/06/13 07:22:59;;;;;;;39.33;6.28;;;20.60;62.50;;;;;;5047394;28;20393;-54
2023/06/13 07:25:24;;;;;;;14.10;3.85;;;20.60;62.70;;;;;;5060110;28;20454;-53
2023/06/13 07:27:50;;;;;;;17.30;4.43;;;20.60;62.60;;;;;;5043250;28;20485;-54
2023/06/13 07:30:15;;;;;;;24.30;4.82;;;20.60;62.70;;;;;;5038705;28;20460;-54
2023/06/13 07:32:41;;;;;;;10.50;3.78;;;20.60;62.70;;;;;;5044037;28;20163;-54
2023/06/13 07:35:07;;;;;;;188.82;22.00;;;20.60;62.90;;;;;;5024158;28;20030;-54
2023/06/13 07:37:32;;;;;;;11.00;4.60;;;20.60;62.80;;;;;;5039223;28;20026;-54
2023/06/13 07:39:58;;;;;;;15.52;4.40;;;20.60;62.90;;;;;;5028305;28;20136;-54
2023/06/13 07:42:23;;;;;;;16.02;4.47;;;20.60;63.00;;;;;;5024765;28;20105;-54
2023/06/13 07:44:49;;;;;;;18.08;4.43;;;20.60;63.20;;;;;;5042542;28;20030;-54
2023/06/13 07:47:15;;;;;;;19.00;4.25;;;20.60;63.10;;;;;;5036979;28;20030;-54
2023/06/13 07:49:40;;;;;;;31.13;5.57;;;20.60;63.30;;;;;;5035510;28;20030;-54
2023/06/13 07:52:08;;;;;;;36.03;5.97;;;20.60;63.50;;;;;;5044159;28;20026;-54
2023/06/13 07:54:33;;;;;;;23.63;5.93;;;20.60;63.40;;;;;;5021894;28;20033;-53
2023/06/13 07:56:59;;;;;;;31.27;5.40;;;20.60;63.50;;;;;;5030398;28;20072;-54
2023/06/13 07:59:24;;;;;;;28.33;5.13;;;20.60;63.60;;;;;;5032684;28;20060;-54
2023/06/13 08:01:50;;;;;;;33.35;5.75;;;20.60;63.80;;;;;;5041560;28;20040;-54
2023/06/13 08:04:16;;;;;;;30.40;5.80;;;20.70;63.70;;;;;;5026653;28;20041;-54
2023/06/13 08:06:41;;;;;;;23.42;4.80;;;20.70;63.90;;;;;;5037337;28;20033;-52
2023/06/13 08:09:11;;;;;;;19.08;4.47;;;20.70;64.10;;;;;;5041033;28;20035;-54
2023/06/13 08:11:37;;;;;;;16.80;4.60;;;20.70;64.20;;;;;;5043828;28;20025;-54
2023/06/13 08:14:03;;;;;;;22.20;5.63;;;20.70;64.10;;;;;;5033299;28;20046;-53
2023/06/13 08:16:28;;;;;;;23.83;5.65;;;20.70;64.30;;;;;;5032239;28;20136;-56
2023/06/13 08:18:54;;;;;;;24.83;5.70;;;20.70;64.40;;;;;;5043301;28;20121;-55
2023/06/13 08:21:20;;;;;;;21.75;5.57;;;20.70;64.20;;;;;;5041669;28;20335;-55
2023/06/13 08:23:45;;;;;;;27.90;5.20;;;20.70;64.10;;;;;;5042333;28;20069;-57
2023/06/13 08:26:11;;;;;;;27.02;5.25;;;20.70;64.40;;;;;;5044479;28;20025;-53
2023/06/13 08:28:37;;;;;;;31.17;6.28;;;20.70;64.30;;;;;;5038591;28;20032;-54
2023/06/13 08:31:03;;;;;;;20.15;5.10;;;20.80;64.10;;;;;;5033809;28;20037;-54
2023/06/13 08:33:29;;;;;;;37.15;6.40;;;20.80;64.20;;;;;;5028453;28;20025;-54
2023/06/13 08:35:55;;;;;;;47.47;6.78;;;20.80;64.40;;;;;;5043680;28;20018;-54
2023/06/13 08:38:21;;;;;;;28.63;6.63;;;20.80;64.50;;;;;;5042531;28;20029;-55
2023/06/13 08:40:47;;;;;;;56.53;7.18;;;20.80;64.30;;;;;;5022133;28;20030;-55
2023/06/13 08:43:12;;;;;;;41.65;6.25;;;20.80;64.60;;;;;;5037000;28;20060;-54
2023/06/13 08:45:38;;;;;;;35.78;5.32;;;20.80;64.50;;;;;;5007723;28;20030;-54
2023/06/13 08:48:04;;;;;;;38.28;6.78;;;20.90;64.60;;;;;;5010333;28;20466;-54
2023/06/13 08:50:29;;;;;;;35.92;6.47;;;20.80;64.40;;;;;;5031046;28;20017;-54
2023/06/13 08:52:55;;;;;;;37.88;5.95;;;20.90;64.50;;;;;;5029549;28;20018;-54
2023/06/13 08:55:22;;;;;;;16.30;5.13;;;21.10;64.70;;;;;;5027023;28;20042;-57
2023/06/13 08:57:52;;;;;;;25.20;5.93;;;20.90;64.50;;;;;;5054228;28;20033;-57
2023/06/13 09:00:18;;;;;;;18.27;3.95;;;20.90;64.50;;;;;;5056672;28;20045;-54
2023/06/13 09:02:45;;;;;;;13.98;4.45;;;20.90;64.70;;;;;;5041707;28;20022;-53
2023/06/13 09:05:13;;;;;;;16.95;4.40;;;20.90;64.60;;;;;;5037788;28;20033;-55
2023/06/13 09:07:39;;;;;;;117.75;16.27;;;20.90;64.50;;;;;;5040060;28;20153;-55
2023/06/13 09:10:06;;;;;;;31.08;6.68;;;20.90;64.70;;;;;;5038153;28;20040;-56
2023/06/13 09:12:32;;;;;;;29.67;5.35;;;20.90;64.60;;;;;;5035698;28;20082;-56
2023/06/13 09:14:57;;;;;;;31.38;6.00;;;21.00;64.60;;;;;;5040401;28;20033;-56
2023/06/13 09:17:23;;;;;;;33.97;6.03;;;21.00;64.40;;;;;;5033138;28;20038;-56
2023/06/13 09:19:48;;;;;;;17.00;4.03;;;21.00;64.60;;;;;;5055211;28;20044;-56
2023/06/13 09:22:16;;;;;;;13.75;4.28;;;21.00;64.50;;;;;;5025935;28;20045;-56
2023/06/13 09:24:41;;;;;;;15.93;4.22;;;21.00;64.40;;;;;;5009762;28;20037;-55
2023/06/13 09:27:08;;;;;;;19.75;5.22;;;21.10;64.40;;;;;;5020249;28;20486;-54
2023/06/13 09:29:34;;;;;;;16.10;4.40;;;21.10;64.60;;;;;;5036961;28;20026;-55
2023/06/13 09:32:00;;;;;;;11.48;3.80;;;21.10;65.00;;;;;;5056615;28;20041;-55
2023/06/13 09:34:28;;;;;;;12.32;4.10;;;21.10;64.80;;;;;;5025774;28;20029;-55
2023/06/13 09:36:54;;;;;;;10.32;3.88;;;21.10;64.90;;;;;;5043859;28;20316;-55
2023/06/13 09:39:20;;;;;;;23.40;5.38;;;21.20;65.20;;;;;;5033045;28;20096;-55
2023/06/13 09:41:51;;;;;;;16.17;4.10;;;21.20;65.20;;;;;;5034354;28;20033;-56
2023/06/13 09:44:17;;;;;;;19.15;4.20;;;21.20;65.00;;;;;;5032252;28;20358;-55
2023/06/13 09:46:42;;;;;;;51.83;8.23;;;21.20;65.30;;;;;;5038968;28;20046;-55
2023/06/13 09:49:08;;;;;;;17.48;3.83;;;21.30;65.50;;;;;;5038628;28;20049;-56
2023/06/13 09:51:34;;;;;;;14.77;4.10;;;21.30;64.90;;;;;;5035886;28;20026;-55
2023/06/13 09:54:00;;;;;;;17.33;4.60;;;21.30;64.50;;;;;;5034587;28;20363;-55
2023/06/13 09:56:26;;;;;;;15.23;4.03;;;21.40;64.60;;;;;;5033922;28;20029;-55
2023/06/13 09:58:51;;;;;;;39.33;6.55;;;21.40;64.20;;;;;;5030723;28;20029;-54
2023/06/13 10:01:18;;;;;;;40.63;8.38;;;21.40;64.20;;;;;;5043741;28;20487;-54
2023/06/13 10:03:44;;;;;;;28.73;6.57;;;21.40;64.80;;;;;;5046346;28;20034;-55
2023/06/13 10:06:10;;;;;;;58.22;9.95;;;21.40;65.20;;;;;;5032242;28;20093;-54
2023/06/13 10:08:36;;;;;;;38.53;7.90;;;21.50;65.10;;;;;;5034150;28;20105;-54
2023/06/13 10:11:34;;;;;;;60.58;11.48;;;21.50;65.30;;;;;;5047794;28;20089;-55
2023/06/13 10:14:14;;;;;;;48.00;8.23;;;21.50;65.30;;;;;;5030946;28;20065;-55
2023/06/13 10:16:49;;;;;;;43.38;7.65;;;21.60;65.30;;;;;;5030072;28;20034;-54
2023/06/13 10:19:19;;;;;;;37.67;6.78;;;21.60;65.30;;;;;;5037160;28;20045;-54
2023/06/13 10:21:45;;;;;;;32.90;6.60;;;21.70;65.40;;;;;;5032580;28;20030;-54
2023/06/13 10:24:10;;;;;;;53.55;6.80;;;21.70;65.20;;;;;;5031014;28;20065;-55
2023/06/13 10:26:40;;;;;;;41.78;7.57;;;21.70;65.10;;;;;;5034676;28;20037;-55
2023/06/13 10:29:43;;;;;;;39.30;6.90;;;21.70;65.10;;;;;;5020680;28;20029;-54
2023/06/13 10:32:43;;;;;;;51.50;8.93;;;21.80;65.10;;;;;;5039548;28;20457;-54
2023/06/13 10:35:39;;;;;;;31.33;7.30;;;21.90;65.00;;;;;;5004795;28;20038;-54
2023/06/13 10:38:05;;;;;;;27.15;6.80;;;21.90;65.30;;;;;;5039098;28;20113;-54
2023/06/13 10:41:00;;;;;;;37.08;7.40;;;22.00;64.80;;;;;;5034830;28;20066;-54
2023/06/13 10:43:55;;;;;;;58.05;7.75;;;22.10;65.00;;;;;;5041089;28;20097;-55
2023/06/13 10:46:21;;;;;;;46.22;7.85;;;22.10;64.90;;;;;;5038983;28;20116;-54
2023/06/13 10:48:51;;;;;;;47.90;7.75;;;22.20;64.90;;;;;;5039075;28;20037;-54
2023/06/13 10:51:26;;;;;;;52.20;7.80;;;22.30;64.80;;;;;;5031855;28;20040;-54
2023/06/13 10:54:13;;;;;;;37.33;7.28;;;22.40;64.50;;;;;;5038980;28;20076;-54
2023/06/13 10:56:42;;;;;;;45.20;6.72;;;22.50;64.30;;;;;;5022616;28;20101;-54
2023/06/13 10:59:12;;;;;;;31.05;5.95;;;22.50;63.90;;;;;;5015357;28;20062;-54
2023/06/13 11:01:39;;;;;;;30.58;6.30;;;22.60;63.60;;;;;;5031903;28;20029;-55
2023/06/13 11:04:06;;;;;;;28.08;5.00;;;22.70;63.40;;;;;;5031075;28;20040;-55
2023/06/13 11:06:32;;;;;;;29.15;6.38;;;22.70;63.10;;;;;;5014288;28;20043;-55
2023/06/13 11:09:17;;;;;;;64.70;8.07;;;22.80;63.00;;;;;;5037070;28;20035;-54
2023/06/13 11:11:45;;;;;;;64.68;8.38;;;22.90;62.90;;;;;;5035865;28;20018;-54
2023/06/13 11:14:11;;;;;;;40.97;7.10;;;23.10;62.70;;;;;;5036129;28;20041;-55
2023/06/13 11:16:38;;;;;;;24.92;5.53;;;23.10;62.40;;;;;;5031339;28;20033;-55
2023/06/13 11:19:26;;;;;;;31.75;6.00;;;23.20;62.10;;;;;;5050118;28;20025;-55
2023/06/13 11:22:07;;;;;;;22.23;5.18;;;23.30;61.90;;;;;;5032210;28;20030;-55
2023/06/13 11:24:33;;;;;;;19.40;5.18;;;23.40;61.80;;;;;;5054817;28;20029;-55
2023/06/13 11:27:00;;;;;;;23.38;4.82;;;23.50;61.50;;;;;;5036174;28;20064;-55
2023/06/13 11:29:26;;;;;;;26.15;4.15;;;23.60;61.30;;;;;;5056110;28;20108;-54
2023/06/13 11:31:52;;;;;;;17.70;4.60;;;23.70;61.00;;;;;;5049519;28;20034;-54
2023/06/13 11:34:20;;;;;;;18.50;4.50;;;23.70;60.80;;;;;;5035447;28;20045;-55
2023/06/13 11:36:46;;;;;;;19.08;5.00;;;23.80;60.50;;;;;;5041529;28;20172;-55
2023/06/13 11:39:13;;;;;;;25.77;4.57;;;23.90;60.40;;;;;;5054451;28;20039;-55
2023/06/13 11:41:39;;;;;;;15.63;4.45;;;24.00;60.20;;;;;;5044482;28;20025;-54
2023/06/13 11:44:05;;;;;;;18.65;4.80;;;24.10;60.00;;;;;;5053078;28;20025;-54
2023/06/13 11:46:30;;;;;;;20.52;5.10;;;24.20;59.80;;;;;;5047702;28;20035;-54
2023/06/13 11:48:56;;;;;;;13.00;3.97;;;24.20;59.50;;;;;;5053456;28;20113;-54
2023/06/13 11:51:22;;;;;;;16.63;3.80;;;24.30;59.30;;;;;;5039506;28;20033;-54
2023/06/13 11:53:55;;;;;;;15.38;3.55;;;24.40;59.10;;;;;;5033417;28;20025;-55
2023/06/13 11:56:23;;;;;;;17.73;3.88;;;24.40;59.00;;;;;;5042876;28;20033;-54
2023/06/13 11:58:49;;;;;;;8.27;3.60;;;24.50;59.00;;;;;;5042344;28;20037;-54
2023/06/13 12:01:16;;;;;;;10.45;3.85;;;24.60;58.90;;;;;;5043078;28;20033;-55
2023/06/13 12:03:45;;;;;;;9.55;3.35;;;24.60;58.80;;;;;;5048132;28;20434;-55
2023/06/13 12:06:10;;;;;;;14.07;3.88;;;24.70;58.50;;;;;;5064073;28;20035;-54
2023/06/13 12:08:37;;;;;;;9.25;3.80;;;24.80;58.40;;;;;;5038857;28;20033;-54
2023/06/13 12:11:05;;;;;;;7.43;3.67;;;24.80;58.20;;;;;;5042410;28;20033;-54
2023/06/13 12:13:33;;;;;;;9.40;3.50;;;24.80;58.30;;;;;;5026574;28;20049;-55
2023/06/13 12:16:00;;;;;;;10.15;3.60;;;24.90;58.30;;;;;;5034829;28;20022;-55
2023/06/13 12:18:25;;;;;;;6.63;3.33;;;24.90;58.20;;;;;;5049783;28;20041;-55
2023/06/13 12:20:51;;;;;;;15.65;3.97;;;25.00;58.10;;;;;;5044369;28;20106;-55
2023/06/13 12:23:20;;;;;;;40.58;5.65;;;25.10;58.00;;;;;;5048097;28;20033;-55
2023/06/13 12:25:46;;;;;;;14.65;3.90;;;25.10;58.00;;;;;;5046619;28;20113;-55
2023/06/13 12:28:15;;;;;;;13.68;4.13;;;25.10;57.80;;;;;;5037890;28;20454;-55
2023/06/13 12:30:45;;;;;;;12.00;4.15;;;25.30;57.70;;;;;;5045638;28;20025;-55
2023/06/13 12:33:14;;;;;;;14.77;4.00;;;25.30;58.10;;;;;;5030076;28;20026;-55
2023/06/13 12:35:51;;;;;;;12.82;4.30;;;25.40;57.30;;;;;;5027948;28;20030;-54
2023/06/13 12:38:18;;;;;;;41.35;6.18;;;25.40;57.10;;;;;;5033007;28;20041;-55
2023/06/13 12:40:46;;;;;;;30.40;6.68;;;25.50;57.20;;;;;;5032404;28;20030;-55
2023/06/13 12:43:12;;;;;;;25.80;5.13;;;25.60;56.90;;;;;;5047488;28;20083;-54